createdAt,value
2022-08-08T00:01:09.233Z,98672.4
2022-08-08T00:06:46.471Z,98660.5
2022-08-08T00:12:30.169Z,98659.7
2022-08-08T00:18:33.382Z,98655.5
2022-08-08T00:24:06.504Z,98651.1
2022-08-08T00:29:47.505Z,98650
2022-08-08T00:35:23.353Z,98651.1
2022-08-08T00:41:15.430Z,98655.4
2022-08-08T00:46:59.418Z,98652.1
2022-08-08T00:52:48.596Z,98652.8
2022-08-08T00:58:34.915Z,98648
2022-08-08T01:04:12.971Z,98643.8
2022-08-08T01:09:51.439Z,98654.5
2022-08-08T01:15:54.877Z,98654.6
2022-08-08T01:22:32.506Z,98647.6
2022-08-08T01:28:18.541Z,98647.6
2022-08-08T01:34:03.836Z,98646.7
2022-08-08T01:39:43.634Z,98641.2
2022-08-08T01:45:23.852Z,98643.9
2022-08-08T01:50:59.465Z,98643.4
2022-08-08T01:58:14.459Z,98646
2022-08-08T02:03:58.836Z,98658.9
2022-08-08T02:10:12.538Z,98664.1
2022-08-08T02:16:43.882Z,98661
2022-08-08T02:22:16.433Z,98657.6
2022-08-08T02:27:52.039Z,98654.7
2022-08-08T02:34:12.242Z,98656.7
2022-08-08T02:40:12.786Z,98656.1
2022-08-08T02:45:57.722Z,98658.8
2022-08-08T02:52:02.114Z,98661.2
2022-08-08T02:58:15.822Z,98658
2022-08-08T03:05:11.163Z,98651.2
2022-08-08T03:10:54.729Z,98656.4
2022-08-08T03:16:51.967Z,98652
2022-08-08T03:22:43.654Z,98646.7
2022-08-08T03:28:19.592Z,98649.8
2022-08-08T03:34:04.895Z,98652.6
2022-08-08T03:40:04.366Z,98658.9
2022-08-08T03:46:10.044Z,98666.9
2022-08-08T03:51:52.269Z,98664.3
2022-08-08T03:58:38.501Z,98664.2
2022-08-08T04:04:31.722Z,98655.8
2022-08-08T04:10:10.689Z,98661.6
2022-08-08T04:16:05.957Z,98665.7
2022-08-08T04:21:46.203Z,98662.4
2022-08-08T04:28:42.002Z,98671.8
2022-08-08T04:34:42.730Z,98674.1
2022-08-08T04:40:36.656Z,98683.1
2022-08-08T04:46:15.256Z,98683.2
2022-08-08T04:51:58.253Z,98686.7
2022-08-08T04:57:39.253Z,98690.4
2022-08-08T05:04:13.074Z,98688.4
2022-08-08T05:09:49.938Z,98695
2022-08-08T05:17:02.079Z,98702
2022-08-08T05:22:52.832Z,98706.5
2022-08-08T05:29:06.705Z,98706.1
2022-08-08T05:34:46.946Z,98713
2022-08-08T05:40:29.478Z,98717.3
2022-08-08T05:46:09.386Z,98716.3
2022-08-08T05:51:54.384Z,98719.4
2022-08-08T05:58:19.981Z,98722.9
2022-08-08T06:04:24.271Z,98729.4
2022-08-08T06:10:06.802Z,98738.4
2022-08-08T06:15:59.521Z,98738.4
2022-08-08T06:21:58.368Z,98741.4
2022-08-08T06:28:07.628Z,98742.2
2022-08-08T06:34:28.790Z,98743.7
2022-08-08T06:40:04.309Z,98746.2
2022-08-08T06:45:53.553Z,98749
2022-08-08T06:51:58.231Z,98751.4
2022-08-08T06:58:02.059Z,98757.5
2022-08-08T07:04:52.596Z,98758.7
2022-08-08T07:10:29.855Z,98764.3
2022-08-08T07:16:13.121Z,98765.9
2022-08-08T07:21:50.606Z,98771.1
2022-08-08T07:28:07.620Z,98766
2022-08-08T07:34:01.891Z,98766
2022-08-08T07:40:00.201Z,98772.1
2022-08-08T07:46:31.145Z,98763
2022-08-08T07:52:07.104Z,98762.3
2022-08-08T07:57:49.332Z,98763.7
2022-08-08T08:03:29.099Z,98765
2022-08-08T08:09:05.938Z,98771.4
2022-08-08T08:14:41.486Z,98764.9
2022-08-08T08:20:17.263Z,98766.7
2022-08-08T08:26:00.331Z,98768.9
2022-08-08T08:31:42.724Z,98770.3
2022-08-08T08:37:33.871Z,98768
2022-08-08T08:44:16.175Z,98776.3
2022-08-08T08:50:01.293Z,98783.1
2022-08-08T08:55:40.748Z,98785.3
2022-08-08T09:01:16.415Z,98787.5
2022-08-08T09:06:51.989Z,98787.9
2022-08-08T09:12:28.072Z,98782
2022-08-08T09:18:25.554Z,98784
2022-08-08T09:23:59.488Z,98784.4
2022-08-08T09:29:57.210Z,98786.8
2022-08-08T09:35:38.544Z,98790.9
2022-08-08T09:42:22.349Z,98783.4
2022-08-08T09:48:23.529Z,98785.9
2022-08-08T09:54:39.081Z,98782
2022-08-08T10:00:59.499Z,98786.5
2022-08-08T10:06:45.350Z,98775.1
2022-08-08T10:12:57.163Z,98774.1
2022-08-08T10:19:12.427Z,98773.4
2022-08-08T10:24:53.488Z,98772.7
2022-08-08T10:31:02.275Z,98768.2
2022-08-08T10:36:39.747Z,98765.9
2022-08-08T10:42:17.512Z,98765.2
2022-08-08T10:48:03.432Z,98763.3
2022-08-08T10:54:02.566Z,98759.4
2022-08-08T10:59:41.395Z,98755.1
2022-08-08T11:05:18.708Z,98746.3
2022-08-08T11:12:06.628Z,98742.7
2022-08-08T11:18:19.204Z,98731.4
2022-08-08T11:24:03.448Z,98728
2022-08-08T11:30:27.421Z,98724.9
2022-08-08T11:36:13.816Z,98717.4
2022-08-08T11:41:52.358Z,98710.2
2022-08-08T11:48:10.423Z,98708
2022-08-08T11:54:38.177Z,98707
2022-08-08T12:00:21.883Z,98704.9
2022-08-08T12:05:59.763Z,98696.1
2022-08-08T12:11:38.306Z,98690.5
2022-08-08T12:17:17.762Z,98692.3
2022-08-08T12:22:57.367Z,98688.4
2022-08-08T12:28:32.832Z,98676
2022-08-08T12:34:11.537Z,98673.5
2022-08-08T12:40:05.679Z,98669.2
2022-08-08T12:46:04.445Z,98657.3
2022-08-08T12:52:01.622Z,98649.5
2022-08-08T12:57:57.108Z,98645.8
2022-08-08T13:03:33.971Z,98634.7
2022-08-08T13:09:10.984Z,98631.7
2022-08-08T13:14:54.292Z,98631.5
2022-08-08T13:20:45.025Z,98626.7
2022-08-08T13:26:27.634Z,98623.1
2022-08-08T13:32:02.954Z,98626.9
2022-08-08T13:38:13.548Z,98621.2
2022-08-08T13:43:51.711Z,98609
2022-08-08T13:50:55.365Z,98611.3
2022-08-08T13:58:19.974Z,98605.3
2022-08-08T14:03:57.407Z,98599.4
2022-08-08T14:10:17.773Z,98599.3
2022-08-08T14:16:17.514Z,98602.1
2022-08-08T14:22:01.891Z,98608.3
2022-08-08T14:28:01.366Z,98604.8
2022-08-08T14:33:40.378Z,98611.9
2022-08-08T14:39:16.420Z,98609.4
2022-08-08T14:44:53.789Z,98602.6
2022-08-08T14:50:41.149Z,98599
2022-08-08T14:56:17.093Z,98592.5
2022-08-08T15:02:00.124Z,98592.9
2022-08-08T15:07:41.687Z,98596
2022-08-08T15:14:03.628Z,98593.3
2022-08-08T15:19:49.534Z,98582.4
2022-08-08T15:25:33.833Z,98576.9
2022-08-08T15:32:23.184Z,98576.5
2022-08-08T15:38:14.330Z,98573.9
2022-08-08T15:44:03.762Z,98573.9
2022-08-08T15:49:49.267Z,98571.9
2022-08-08T15:55:29.138Z,98559.4
2022-08-08T16:01:05.909Z,98564.1
2022-08-08T16:06:42.452Z,98560.9
2022-08-08T16:13:43.395Z,98552.5
2022-08-08T16:19:30.207Z,98551.3
2022-08-08T16:26:05.122Z,98552.9
2022-08-08T16:32:27.699Z,98550.3
2022-08-08T16:38:31.969Z,98546.8
2022-08-08T16:44:13.440Z,98549.5
2022-08-08T16:49:49.976Z,98544.9
2022-08-08T16:56:00.347Z,98549.4
2022-08-08T17:01:50.993Z,98561.5
2022-08-08T17:07:29.222Z,98559.2
2022-08-08T17:13:07.901Z,98570
2022-08-08T17:19:08.624Z,98566.5
2022-08-08T17:24:57.762Z,98558.8
2022-08-08T17:30:38.299Z,98554.5
2022-08-08T17:36:32.363Z,98557.4
2022-08-08T17:42:08.197Z,98559.2
2022-08-08T17:47:51.580Z,98568.4
2022-08-08T17:53:57.682Z,98573.3
2022-08-08T17:59:48.298Z,98576.3
2022-08-08T18:05:50.990Z,98574.6
2022-08-08T18:11:36.689Z,98576.2
2022-08-08T18:18:34.926Z,98581.9
2022-08-08T18:24:30.918Z,98593.4
2022-08-08T18:30:08.678Z,98599.9
2022-08-08T18:35:50.903Z,98604.1
2022-08-08T18:42:04.282Z,98608.9
2022-08-08T18:47:40.096Z,98602.5
2022-08-08T18:53:18.778Z,98595.1
2022-08-08T18:58:55.555Z,98599
2022-08-08T19:04:30.641Z,98604.4
2022-08-08T19:10:17.162Z,98607.5
2022-08-08T19:15:59.102Z,98613.1
2022-08-08T19:21:50.520Z,98615.3
2022-08-08T19:28:01.949Z,98628
2022-08-08T19:34:41.224Z,98630.8
2022-08-08T19:40:30.857Z,98644.9
2022-08-08T19:46:08.380Z,98659.4
2022-08-08T19:52:13.665Z,98672.2
2022-08-08T19:58:17.830Z,98676.7
2022-08-08T20:04:04.048Z,98685.7
2022-08-08T20:09:58.490Z,98690.4
2022-08-08T20:16:01.564Z,98692.7
2022-08-08T20:21:40.864Z,98697.2
2022-08-08T20:27:50.592Z,98711.7
2022-08-08T20:34:32.232Z,98712.6
2022-08-08T20:40:17.526Z,98713.7
2022-08-08T20:46:25.615Z,98723
2022-08-08T20:52:04.403Z,98726.4
2022-08-08T20:57:51.593Z,98735.7
2022-08-08T21:03:30.583Z,98734.3
2022-08-08T21:09:05.283Z,98744.4
2022-08-08T21:14:40.136Z,98748.6
2022-08-08T21:20:22.320Z,98750
2022-08-08T21:26:12.300Z,98748.6
2022-08-08T21:32:03.569Z,98750.5
2022-08-08T21:37:55.715Z,98754.8
2022-08-08T21:43:55.632Z,98756.2
2022-08-08T21:49:31.964Z,98756.1
2022-08-08T21:56:40.239Z,98759.4
2022-08-08T22:02:25.454Z,98760.3
2022-08-08T22:08:02.171Z,98770.9
2022-08-08T22:13:52.334Z,98771.4
2022-08-08T22:20:28.109Z,98776.5
2022-08-08T22:26:31.313Z,98772.7
2022-08-08T22:32:08.699Z,98769.1
2022-08-08T22:37:55.520Z,98766
2022-08-08T22:44:06.565Z,98770.5
2022-08-08T22:50:00.109Z,98771.5
2022-08-08T22:56:02.042Z,98769.8
2022-08-08T23:02:13.242Z,98780.1
2022-08-08T23:07:58.612Z,98783.3
2022-08-08T23:14:01.826Z,98781.7
2022-08-08T23:19:37.499Z,98778.2
2022-08-08T23:25:19.253Z,98781.6
2022-08-08T23:30:55.497Z,98784.6
2022-08-08T23:36:30.231Z,98785.1
2022-08-08T23:42:09.052Z,98791.6
2022-08-08T23:49:20.194Z,98799.3
2022-08-08T23:55:23.300Z,98798
